Condor Express — 9V5373 — position and weather

sailwx.info

Track history (hours):
 
Tides and Currents Weather Stations Pressure Air Temp Water Temp Dewpoint Dewpoint Depression Visibility Wind Speed Wind Dir Waves Ship Positions

Condor Express

Operator: Condor Marine Services

Last reported at 2019-Sep-10 09:44 UTC. Time now 2019-Sep-21 10:57 UTC.
Position N 48°29' W 126°31'.
Warning: this ship's position is 11 days out of date.

Length 235 m; draft 14.6 m.

Type: Cargo ship. MMSI: 563014500.

Date/timePositionNaut miles runAvg speedWind from/ knotsBaromVisibWave heightAir tempDewpointWater temp
2019-Sep-10 09:44N 48°29' W 126°31'310.2
2019-Sep-10 09:25N 48°29' W 126°26'410.3
2019-Sep-10 09:00N 48°29' W 126°19'510.0
2019-Sep-10 08:30N 48°29' W 126°12'510.2
2019-Sep-10 08:00N 48°30' W 126°04'510.5
2019-Sep-10 07:30N 48°30' W 125°56'510.2
2019-Sep-10 07:00N 48°30' W 125°48'510.1
2019-Sep-10 06:30N 48°30' W 125°41'510.3
2019-Sep-10 06:00N 48°30' W 125°33'510.4
2019-Sep-10 05:30N 48°31' W 125°25'510.9
2019-Sep-10 05:00N 48°31' W 125°17'610.7
2019-Sep-10 04:28N 48°31' W 125°08'510.5
2019-Sep-10 03:59N 48°32' W 125°01'510.7
2019-Sep-10 03:29N 48°31' W 124°53'511.1
2019-Sep-10 03:00N 48°31' W 124°45'611.5
2019-Sep-10 02:30N 48°29' W 124°37'611.5
2019-Sep-10 02:00N 48°27' W 124°29'611.3
2019-Sep-10 01:30N 48°24' W 124°21'611.2
2019-Sep-10 01:00N 48°22' W 124°13'611.2
2019-Sep-10 00:30N 48°20' W 124°05'611.5
2019-Sep-10 00:00N 48°18' W 123°57'611.5
2019-Sep-09 23:30N 48°17' W 123°48'510.9
2019-Sep-09 23:00N 48°16' W 123°41'5 9.8
2019-Sep-09 22:29N 48°16' W 123°33'4 8.4
2019-Sep-09 22:00N 48°18' W 123°28'5 9.3
2019-Sep-09 21:30N 48°22' W 123°25'4 8.1
2019-Sep-09 21:00N 48°23' W 123°19'4 8.3
2019-Sep-09 20:30N 48°25' W 123°13'5 9.9
2019-Sep-09 20:00N 48°30' W 123°13'510.0
2019-Sep-09 19:30N 48°35' W 123°14'510.7
2019-Sep-09 19:00N 48°40' W 123°15'4 8.9
2019-Sep-09 18:30N 48°43' W 123°11'510.8
2019-Sep-09 18:00N 48°46' W 123°04'4 8.5
2019-Sep-09 17:30N 48°50' W 123°01'611.6
2019-Sep-09 17:00N 48°54' W 123°08'510.3
2019-Sep-09 16:30N 48°59' W 123°10'2 4.0
2019-Sep-09 16:00N 49°01' W 123°10'0 0.0
2019-Sep-09 15:30N 49°01' W 123°10'0 0.0
2019-Sep-09 14:57N 49°01' W 123°10'0 0.0
2019-Sep-09 14:30N 49°01' W 123°10'0 0.0
2019-Sep-09 14:00N 49°01' W 123°10'0 0.0
2019-Sep-09 13:27N 49°01' W 123°10'0 0.0
2019-Sep-09 12:57N 49°01' W 123°10'0 0.0
2019-Sep-09 12:30N 49°01' W 123°10'0 0.0
2019-Sep-09 12:00N 49°01' W 123°10'0 0.0
2019-Sep-09 11:30N 49°01' W 123°10'0 0.0
2019-Sep-09 10:57N 49°01' W 123°10'0 0.0
2019-Sep-09 10:30N 49°01' W 123°10'0 0.0
2019-Sep-09 10:00N 49°01' W 123°10'0 0.0
2019-Sep-09 09:30N 49°01' W 123°10'0 0.0
2019-Sep-09 09:00N 49°01' W 123°10'0 0.0
2019-Sep-09 08:30N 49°01' W 123°10'0 0.0
2019-Sep-09 08:00N 49°01' W 123°10'0 0.0
2019-Sep-09 07:30N 49°01' W 123°10'0 0.0
2019-Sep-09 07:00N 49°01' W 123°10'0 0.0
2019-Sep-09 06:30N 49°01' W 123°10'0 0.0
2019-Sep-09 06:00N 49°01' W 123°10'0 0.0
2019-Sep-09 05:30N 49°01' W 123°10'0 0.0
2019-Sep-09 05:00N 49°01' W 123°10'0 0.0
2019-Sep-09 04:30N 49°01' W 123°10'0 0.0
2019-Sep-09 04:00N 49°01' W 123°10'0 0.0
2019-Sep-09 03:27N 49°01' W 123°10'0 0.0
2019-Sep-09 02:57N 49°01' W 123°10'0 0.0
2019-Sep-09 02:00N 49°01' W 123°10'0 0.0
2019-Sep-09 01:30N 49°01' W 123°10'0 0.0
2019-Sep-09 00:57N 49°01' W 123°10'0 0.0
2019-Sep-09 00:30N 49°01' W 123°10'0 0.0
2019-Sep-08 23:57N 49°01' W 123°10'0 0.0
2019-Sep-08 23:30N 49°01' W 123°10'0 0.0
2019-Sep-08 22:57N 49°01' W 123°10'0 0.0
2019-Sep-08 22:30N 49°01' W 123°10'0 0.0
2019-Sep-08 21:54N 49°01' W 123°10'0 0.0
2019-Sep-08 21:30N 49°01' W 123°10'0 0.0
2019-Sep-08 20:57N 49°01' W 123°10'0 0.0
2019-Sep-08 20:30N 49°01' W 123°10'0 0.0
2019-Sep-08 20:00N 49°01' W 123°10'0 0.0
2019-Sep-08 19:30N 49°01' W 123°10'0 0.0
2019-Sep-08 19:00N 49°01' W 123°10'0 0.0
2019-Sep-08 18:30N 49°01' W 123°10'0 0.0
2019-Sep-08 18:00N 49°01' W 123°10'0 0.0
2019-Sep-08 17:30N 49°01' W 123°10'0 0.0
2019-Sep-08 17:00N 49°01' W 123°10'0 0.0
2019-Sep-08 16:30N 49°01' W 123°10'0 0.0
2019-Sep-08 16:00N 49°01' W 123°10'0 0.0
2019-Sep-08 15:30N 49°01' W 123°10'0 0.0
2019-Sep-08 15:00N 49°01' W 123°10'0 0.0
2019-Sep-08 14:30N 49°01' W 123°10'0 0.0
2019-Sep-08 14:00N 49°01' W 123°10'0 0.0
2019-Sep-08 13:30N 49°01' W 123°10'0 0.0
2019-Sep-08 13:00N 49°01' W 123°10'0 0.0
2019-Sep-08 12:30N 49°01' W 123°10'0 0.0
2019-Sep-08 12:00N 49°01' W 123°10'0 0.0
2019-Sep-08 11:30N 49°01' W 123°10'0 0.0
2019-Sep-08 11:00N 49°01' W 123°10'0 0.0
2019-Sep-08 10:30N 49°01' W 123°10'0 0.0
2019-Sep-08 10:00N 49°01' W 123°10'0 0.0
2019-Sep-08 09:30N 49°01' W 123°10'0 0.0
2019-Sep-08 09:00N 49°01' W 123°10'0 0.0
2019-Sep-08 08:30N 49°01' W 123°10'0 0.0
2019-Sep-08 08:00N 49°01' W 123°10'0 0.0
2019-Sep-08 07:30N 49°01' W 123°10'0 0.0
2019-Sep-08 07:00N 49°01' W 123°10'0 0.0
2019-Sep-08 06:30N 49°01' W 123°10'0 0.0
2019-Sep-08 05:57N 49°01' W 123°10'0 0.0
2019-Sep-08 05:30N 49°01' W 123°10'0 0.0
2019-Sep-08 05:00N 49°01' W 123°10'0 0.0
2019-Sep-08 04:30N 49°01' W 123°10'0 0.0
2019-Sep-08 04:00N 49°01' W 123°10'0 0.0
2019-Sep-08 03:30N 49°01' W 123°10'0 0.0
2019-Sep-08 03:00N 49°01' W 123°10'0 0.0
2019-Sep-08 02:30N 49°01' W 123°10'0 0.0
2019-Sep-08 01:57N 49°01' W 123°10'0 0.0
2019-Sep-08 01:30N 49°01' W 123°10'0 0.0
2019-Sep-08 01:00N 49°01' W 123°10'0 0.0
2019-Sep-08 00:30N 49°01' W 123°10'0 0.0
2019-Sep-08 00:00N 49°01' W 123°10'0 0.0
2019-Sep-07 23:30N 49°01' W 123°10'0 0.0
2019-Sep-07 23:00N 49°01' W 123°10'0 0.0
2019-Sep-07 22:30N 49°01' W 123°10'0 0.0
2019-Sep-07 22:00N 49°01' W 123°10'0 0.0
2019-Sep-07 21:30N 49°01' W 123°10'0 0.0
2019-Sep-07 21:00N 49°01' W 123°10'0 0.0
2019-Sep-07 20:30N 49°01' W 123°10'0 0.0
2019-Sep-07 20:00N 49°01' W 123°10'0 0.0
2019-Sep-07 19:30N 49°01' W 123°10'0 0.0
2019-Sep-07 19:00N 49°01' W 123°10'0 0.0
2019-Sep-07 18:30N 49°01' W 123°10'0 0.0
2019-Sep-07 17:57N 49°01' W 123°10'0 0.0
2019-Sep-07 17:30N 49°01' W 123°10'0 0.0
2019-Sep-07 17:00N 49°01' W 123°10'0 0.0
2019-Sep-07 16:30N 49°01' W 123°10'0 0.0
2019-Sep-07 15:57N 49°01' W 123°10'0 0.0
2019-Sep-07 15:30N 49°01' W 123°10'0 0.0
2019-Sep-07 14:57N 49°01' W 123°10'0 0.3
2019-Sep-07 14:31N 49°01' W 123°10'2 3.1
2019-Sep-07 14:00N 49°01' W 123°13'3 6.8
2019-Sep-07 13:31N 49°02' W 123°18'5 9.9
2019-Sep-07 13:00N 49°04' W 123°24'612.4
2019-Sep-07 12:31N 49°11' W 123°23'612.9
2019-Sep-07 12:00N 49°17' W 123°21'611.9
2019-Sep-07 11:31N 49°19' W 123°13'510.8
2019-Sep-07 11:01N 49°18' W 123°05'0 0.9
2019-Sep-07 10:31N 49°18' W 123°05'0 0.0
2019-Sep-07 10:00N 49°18' W 123°05'0 0.1
2019-Sep-07 09:30N 49°18' W 123°05'0 0.0
2019-Sep-07 09:00N 49°18' W 123°05'0 0.1
2019-Sep-07 08:30N 49°18' W 123°05'0 0.0
2019-Sep-07 08:00N 49°18' W 123°05'0 0.0
2019-Sep-07 07:30N 49°18' W 123°05'0 0.1
2019-Sep-07 07:00N 49°18' W 123°05'0 0.1
2019-Sep-07 06:30N 49°18' W 123°05'0 0.1
2019-Sep-07 06:00N 49°18' W 123°05'0 0.1
2019-Sep-07 05:30N 49°18' W 123°05'0 0.1
2019-Sep-07 05:01N 49°18' W 123°05'0 0.1
2019-Sep-07 04:30N 49°18' W 123°05'0 0.1
2019-Sep-07 04:00N 49°18' W 123°05'0 0.2
2019-Sep-07 03:30N 49°18' W 123°05'0 0.1
2019-Sep-07 03:00N 49°18' W 123°05'0 0.1
2019-Sep-07 02:30N 49°18' W 123°05'0 0.0
2019-Sep-07 02:00N 49°18' W 123°05'0 0.0
2019-Sep-07 01:30N 49°18' W 123°05'0 0.0
2019-Sep-07 01:00N 49°18' W 123°05'0 0.0
2019-Sep-07 00:30N 49°18' W 123°05'0 0.0
2019-Sep-07 00:00N 49°18' W 123°05'0 0.0
2019-Sep-06 23:30N 49°18' W 123°05'0 0.0
2019-Sep-06 23:00N 49°18' W 123°05'0 0.1
2019-Sep-06 22:30N 49°18' W 123°05'0 0.1
2019-Sep-06 22:00N 49°18' W 123°05'0 0.1
2019-Sep-06 21:30N 49°18' W 123°05'0 0.2
2019-Sep-06 21:00N 49°18' W 123°05'0 0.1
2019-Sep-06 20:30N 49°18' W 123°05'0 0.0
2019-Sep-06 20:00N 49°18' W 123°05'0 0.0
2019-Sep-06 19:30N 49°18' W 123°05'0 0.3
2019-Sep-06 19:00N 49°18' W 123°05'0 0.1
2019-Sep-06 18:30N 49°18' W 123°05'0 0.0
2019-Sep-06 18:00N 49°18' W 123°05'0 0.1
2019-Sep-06 17:30N 49°18' W 123°05'0 0.0
2019-Sep-06 17:00N 49°18' W 123°05'0 0.1
2019-Sep-06 16:30N 49°18' W 123°05'0 0.2
2019-Sep-06 16:00N 49°18' W 123°05'0 0.2
2019-Sep-06 15:30N 49°18' W 123°05'0 0.1
2019-Sep-06 15:00N 49°18' W 123°05'0 0.3
2019-Sep-06 14:30N 49°18' W 123°05'0 0.1
2019-Sep-06 14:00N 49°18' W 123°05'0 0.0
2019-Sep-06 13:30N 49°18' W 123°05'0 0.1
2019-Sep-06 13:00N 49°18' W 123°05'0 0.0
2019-Sep-06 12:30N 49°18' W 123°05'0 0.0
2019-Sep-06 12:00N 49°18' W 123°05'0 0.1
2019-Sep-06 11:30N 49°18' W 123°05'0 0.1
2019-Sep-06 11:00N 49°18' W 123°05'0 0.0
2019-Sep-06 10:31N 49°18' W 123°05'0 0.0
2019-Sep-06 10:00N 49°18' W 123°05'0 0.0
2019-Sep-06 09:30N 49°18' W 123°05'0 0.0
2019-Sep-06 09:00N 49°18' W 123°05'0 0.0
2019-Sep-06 08:30N 49°18' W 123°05'0 0.2
2019-Sep-06 08:00N 49°18' W 123°05'0 0.2
2019-Sep-06 07:30N 49°18' W 123°05'0 0.1
2019-Sep-06 07:00N 49°18' W 123°05'0 0.1
2019-Sep-06 06:30N 49°18' W 123°05'0 0.1
2019-Sep-06 06:00N 49°18' W 123°05'0 0.1
2019-Sep-06 05:30N 49°18' W 123°05'0 0.3
2019-Sep-06 05:00N 49°18' W 123°05'1 2.3
2019-Sep-06 04:30N 49°18' W 123°07'4 7.1
2019-Sep-06 04:00N 49°19' W 123°12'4 7.6
2019-Sep-06 03:30N 49°18' W 123°17'612.6
2019-Sep-06 03:00N 49°12' W 123°19'612.7
2019-Sep-06 02:30N 49°05' W 123°21'612.4
2019-Sep-06 02:01N 49°01' W 123°15'713.2
2019-Sep-06 01:30N 48°56' W 123°08'612.8
2019-Sep-06 01:00N 48°51' W 123°02'510.2
2019-Sep-06 00:30N 48°46' W 123°02'511.0
2019-Sep-06 00:00N 48°43' W 123°10'5 9.2
2019-Sep-05 23:31N 48°40' W 123°15'510.8
2019-Sep-05 23:00N 48°35' W 123°13'510.5
2019-Sep-05 22:30N 48°30' W 123°11'510.3
2019-Sep-05 22:00N 48°25' W 123°11'510.4
2019-Sep-05 21:30N 48°22' W 123°18'4 8.3
2019-Sep-05 21:00N 48°21' W 123°24'2 3.9
2019-Sep-05 20:30N 48°19' W 123°25'510.2
2019-Sep-05 20:00N 48°15' W 123°28'510.4
2019-Sep-05 19:30N 48°13' W 123°36'611.5
2019-Sep-05 19:00N 48°13' W 123°44'611.3
2019-Sep-05 18:30N 48°13' W 123°53'611.5
2019-Sep-05 18:00N 48°15' W 124°01'612.4
2019-Sep-05 17:30N 48°18' W 124°10'612.3
2019-Sep-05 17:00N 48°20' W 124°18'612.2
2019-Sep-05 16:30N 48°23' W 124°26'612.1
2019-Sep-05 16:00N 48°26' W 124°34'611.6
2019-Sep-05 15:30N 48°28' W 124°42'611.2
2019-Sep-05 15:00N 48°29' W 124°51'612.0
2019-Sep-05 14:30N 48°29' W 124°60'612.1
2019-Sep-05 14:00N 48°28' W 125°09'611.5
2019-Sep-05 13:30N 48°28' W 125°18'611.6
2019-Sep-05 13:00N 48°27' W 125°26'611.9
2019-Sep-05 12:30N 48°27' W 125°35'611.8
2019-Sep-05 12:00N 48°28' W 125°44'611.3
2019-Sep-05 11:30N 48°28' W 125°53'611.3
2019-Sep-05 11:00N 48°28' W 126°01'611.8
2019-Sep-05 10:30N 48°28' W 126°10'612.2
2019-Sep-05 10:00N 48°28' W 126°19'612.2
2019-Sep-05 09:30N 48°28' W 126°28'612.3
2019-Sep-05 08:59N 48°28' W 126°38'  
Track history (hours):
 
Tides and Currents Weather Stations Pressure Air Temp Water Temp Dewpoint Dewpoint Depression Visibility Wind Speed Wind Dir Waves Ship Positions

Condor Express

Operator: Condor Marine Services

Last reported at 2019-Sep-10 09:44 UTC. Time now 2019-Sep-21 10:57 UTC.
Position N 48°29' W 126°31'.
Warning: this ship's position is 11 days out of date.

Length 235 m; draft 14.6 m.

Type: Cargo ship. MMSI: 563014500.

Date/timePositionNaut miles runAvg speedWind from/ knotsBaromVisibWave heightAir tempDewpointWater temp
2019-Sep-10 09:44N 48°29' W 126°31'310.2
2019-Sep-10 09:25N 48°29' W 126°26'410.3
2019-Sep-10 09:00N 48°29' W 126°19'510.0
2019-Sep-10 08:30N 48°29' W 126°12'510.2
2019-Sep-10 08:00N 48°30' W 126°04'510.5
2019-Sep-10 07:30N 48°30' W 125°56'510.2
2019-Sep-10 07:00N 48°30' W 125°48'510.1
2019-Sep-10 06:30N 48°30' W 125°41'510.3
2019-Sep-10 06:00N 48°30' W 125°33'510.4
2019-Sep-10 05:30N 48°31' W 125°25'510.9
2019-Sep-10 05:00N 48°31' W 125°17'610.7
2019-Sep-10 04:28N 48°31' W 125°08'510.5
2019-Sep-10 03:59N 48°32' W 125°01'510.7
2019-Sep-10 03:29N 48°31' W 124°53'511.1
2019-Sep-10 03:00N 48°31' W 124°45'611.5
2019-Sep-10 02:30N 48°29' W 124°37'611.5
2019-Sep-10 02:00N 48°27' W 124°29'611.3
2019-Sep-10 01:30N 48°24' W 124°21'611.2
2019-Sep-10 01:00N 48°22' W 124°13'611.2
2019-Sep-10 00:30N 48°20' W 124°05'611.5
2019-Sep-10 00:00N 48°18' W 123°57'611.5
2019-Sep-09 23:30N 48°17' W 123°48'510.9
2019-Sep-09 23:00N 48°16' W 123°41'5 9.8
2019-Sep-09 22:29N 48°16' W 123°33'4 8.4
2019-Sep-09 22:00N 48°18' W 123°28'5 9.3
2019-Sep-09 21:30N 48°22' W 123°25'4 8.1
2019-Sep-09 21:00N 48°23' W 123°19'4 8.3
2019-Sep-09 20:30N 48°25' W 123°13'5 9.9
2019-Sep-09 20:00N 48°30' W 123°13'510.0
2019-Sep-09 19:30N 48°35' W 123°14'510.7
2019-Sep-09 19:00N 48°40' W 123°15'4 8.9
2019-Sep-09 18:30N 48°43' W 123°11'510.8
2019-Sep-09 18:00N 48°46' W 123°04'4 8.5
2019-Sep-09 17:30N 48°50' W 123°01'611.6
2019-Sep-09 17:00N 48°54' W 123°08'510.3
2019-Sep-09 16:30N 48°59' W 123°10'2 4.0
2019-Sep-09 16:00N 49°01' W 123°10'0 0.0
2019-Sep-09 15:30N 49°01' W 123°10'0 0.0
2019-Sep-09 14:57N 49°01' W 123°10'0 0.0
2019-Sep-09 14:30N 49°01' W 123°10'0 0.0
2019-Sep-09 14:00N 49°01' W 123°10'0 0.0
2019-Sep-09 13:27N 49°01' W 123°10'0 0.0
2019-Sep-09 12:57N 49°01' W 123°10'0 0.0
2019-Sep-09 12:30N 49°01' W 123°10'0 0.0
2019-Sep-09 12:00N 49°01' W 123°10'0 0.0
2019-Sep-09 11:30N 49°01' W 123°10'0 0.0
2019-Sep-09 10:57N 49°01' W 123°10'0 0.0
2019-Sep-09 10:30N 49°01' W 123°10'0 0.0
2019-Sep-09 10:00N 49°01' W 123°10'0 0.0
2019-Sep-09 09:30N 49°01' W 123°10'0 0.0
2019-Sep-09 09:00N 49°01' W 123°10'0 0.0
2019-Sep-09 08:30N 49°01' W 123°10'0 0.0
2019-Sep-09 08:00N 49°01' W 123°10'0 0.0
2019-Sep-09 07:30N 49°01' W 123°10'0 0.0
2019-Sep-09 07:00N 49°01' W 123°10'0 0.0
2019-Sep-09 06:30N 49°01' W 123°10'0 0.0
2019-Sep-09 06:00N 49°01' W 123°10'0 0.0
2019-Sep-09 05:30N 49°01' W 123°10'0 0.0
2019-Sep-09 05:00N 49°01' W 123°10'0 0.0
2019-Sep-09 04:30N 49°01' W 123°10'0 0.0
2019-Sep-09 04:00N 49°01' W 123°10'0 0.0
2019-Sep-09 03:27N 49°01' W 123°10'0 0.0
2019-Sep-09 02:57N 49°01' W 123°10'0 0.0
2019-Sep-09 02:00N 49°01' W 123°10'0 0.0
2019-Sep-09 01:30N 49°01' W 123°10'0 0.0
2019-Sep-09 00:57N 49°01' W 123°10'0 0.0
2019-Sep-09 00:30N 49°01' W 123°10'0 0.0
2019-Sep-08 23:57N 49°01' W 123°10'0 0.0
2019-Sep-08 23:30N 49°01' W 123°10'0 0.0
2019-Sep-08 22:57N 49°01' W 123°10'0 0.0
2019-Sep-08 22:30N 49°01' W 123°10'0 0.0
2019-Sep-08 21:54N 49°01' W 123°10'0 0.0
2019-Sep-08 21:30N 49°01' W 123°10'0 0.0
2019-Sep-08 20:57N 49°01' W 123°10'0 0.0
2019-Sep-08 20:30N 49°01' W 123°10'0 0.0
2019-Sep-08 20:00N 49°01' W 123°10'0 0.0
2019-Sep-08 19:30N 49°01' W 123°10'0 0.0
2019-Sep-08 19:00N 49°01' W 123°10'0 0.0
2019-Sep-08 18:30N 49°01' W 123°10'0 0.0
2019-Sep-08 18:00N 49°01' W 123°10'0 0.0
2019-Sep-08 17:30N 49°01' W 123°10'0 0.0
2019-Sep-08 17:00N 49°01' W 123°10'0 0.0
2019-Sep-08 16:30N 49°01' W 123°10'0 0.0
2019-Sep-08 16:00N 49°01' W 123°10'0 0.0
2019-Sep-08 15:30N 49°01' W 123°10'0 0.0
2019-Sep-08 15:00N 49°01' W 123°10'0 0.0
2019-Sep-08 14:30N 49°01' W 123°10'0 0.0
2019-Sep-08 14:00N 49°01' W 123°10'0 0.0
2019-Sep-08 13:30N 49°01' W 123°10'0 0.0
2019-Sep-08 13:00N 49°01' W 123°10'0 0.0
2019-Sep-08 12:30N 49°01' W 123°10'0 0.0
2019-Sep-08 12:00N 49°01' W 123°10'0 0.0
2019-Sep-08 11:30N 49°01' W 123°10'0 0.0
2019-Sep-08 11:00N 49°01' W 123°10'0 0.0
2019-Sep-08 10:30N 49°01' W 123°10'0 0.0
2019-Sep-08 10:00N 49°01' W 123°10'0 0.0
2019-Sep-08 09:30N 49°01' W 123°10'0 0.0
2019-Sep-08 09:00N 49°01' W 123°10'0 0.0
2019-Sep-08 08:30N 49°01' W 123°10'0 0.0
2019-Sep-08 08:00N 49°01' W 123°10'0 0.0
2019-Sep-08 07:30N 49°01' W 123°10'0 0.0
2019-Sep-08 07:00N 49°01' W 123°10'0 0.0
2019-Sep-08 06:30N 49°01' W 123°10'0 0.0
2019-Sep-08 05:57N 49°01' W 123°10'0 0.0
2019-Sep-08 05:30N 49°01' W 123°10'0 0.0
2019-Sep-08 05:00N 49°01' W 123°10'0 0.0
2019-Sep-08 04:30N 49°01' W 123°10'0 0.0
2019-Sep-08 04:00N 49°01' W 123°10'0 0.0
2019-Sep-08 03:30N 49°01' W 123°10'0 0.0
2019-Sep-08 03:00N 49°01' W 123°10'0 0.0
2019-Sep-08 02:30N 49°01' W 123°10'0 0.0
2019-Sep-08 01:57N 49°01' W 123°10'0 0.0
2019-Sep-08 01:30N 49°01' W 123°10'0 0.0
2019-Sep-08 01:00N 49°01' W 123°10'0 0.0
2019-Sep-08 00:30N 49°01' W 123°10'0 0.0
2019-Sep-08 00:00N 49°01' W 123°10'0 0.0
2019-Sep-07 23:30N 49°01' W 123°10'0 0.0
2019-Sep-07 23:00N 49°01' W 123°10'0 0.0
2019-Sep-07 22:30N 49°01' W 123°10'0 0.0
2019-Sep-07 22:00N 49°01' W 123°10'0 0.0
2019-Sep-07 21:30N 49°01' W 123°10'0 0.0
2019-Sep-07 21:00N 49°01' W 123°10'0 0.0
2019-Sep-07 20:30N 49°01' W 123°10'0 0.0
2019-Sep-07 20:00N 49°01' W 123°10'0 0.0
2019-Sep-07 19:30N 49°01' W 123°10'0 0.0
2019-Sep-07 19:00N 49°01' W 123°10'0 0.0
2019-Sep-07 18:30N 49°01' W 123°10'0 0.0
2019-Sep-07 17:57N 49°01' W 123°10'0 0.0
2019-Sep-07 17:30N 49°01' W 123°10'0 0.0
2019-Sep-07 17:00N 49°01' W 123°10'0 0.0
2019-Sep-07 16:30N 49°01' W 123°10'0 0.0
2019-Sep-07 15:57N 49°01' W 123°10'0 0.0
2019-Sep-07 15:30N 49°01' W 123°10'0 0.0
2019-Sep-07 14:57N 49°01' W 123°10'0 0.3
2019-Sep-07 14:31N 49°01' W 123°10'2 3.1
2019-Sep-07 14:00N 49°01' W 123°13'3 6.8
2019-Sep-07 13:31N 49°02' W 123°18'5 9.9
2019-Sep-07 13:00N 49°04' W 123°24'612.4
2019-Sep-07 12:31N 49°11' W 123°23'612.9
2019-Sep-07 12:00N 49°17' W 123°21'611.9
2019-Sep-07 11:31N 49°19' W 123°13'510.8
2019-Sep-07 11:01N 49°18' W 123°05'0 0.9
2019-Sep-07 10:31N 49°18' W 123°05'0 0.0
2019-Sep-07 10:00N 49°18' W 123°05'0 0.1
2019-Sep-07 09:30N 49°18' W 123°05'0 0.0
2019-Sep-07 09:00N 49°18' W 123°05'0 0.1
2019-Sep-07 08:30N 49°18' W 123°05'0 0.0
2019-Sep-07 08:00N 49°18' W 123°05'0 0.0
2019-Sep-07 07:30N 49°18' W 123°05'0 0.1
2019-Sep-07 07:00N 49°18' W 123°05'0 0.1
2019-Sep-07 06:30N 49°18' W 123°05'0 0.1
2019-Sep-07 06:00N 49°18' W 123°05'0 0.1
2019-Sep-07 05:30N 49°18' W 123°05'0 0.1
2019-Sep-07 05:01N 49°18' W 123°05'0 0.1
2019-Sep-07 04:30N 49°18' W 123°05'0 0.1
2019-Sep-07 04:00N 49°18' W 123°05'0 0.2
2019-Sep-07 03:30N 49°18' W 123°05'0 0.1
2019-Sep-07 03:00N 49°18' W 123°05'0 0.1
2019-Sep-07 02:30N 49°18' W 123°05'0 0.0
2019-Sep-07 02:00N 49°18' W 123°05'0 0.0
2019-Sep-07 01:30N 49°18' W 123°05'0 0.0
2019-Sep-07 01:00N 49°18' W 123°05'0 0.0
2019-Sep-07 00:30N 49°18' W 123°05'0 0.0
2019-Sep-07 00:00N 49°18' W 123°05'0 0.0
2019-Sep-06 23:30N 49°18' W 123°05'0 0.0
2019-Sep-06 23:00N 49°18' W 123°05'0 0.1
2019-Sep-06 22:30N 49°18' W 123°05'0 0.1
2019-Sep-06 22:00N 49°18' W 123°05'0 0.1
2019-Sep-06 21:30N 49°18' W 123°05'0 0.2
2019-Sep-06 21:00N 49°18' W 123°05'0 0.1
2019-Sep-06 20:30N 49°18' W 123°05'0 0.0
2019-Sep-06 20:00N 49°18' W 123°05'0 0.0
2019-Sep-06 19:30N 49°18' W 123°05'0 0.3
2019-Sep-06 19:00N 49°18' W 123°05'0 0.1
2019-Sep-06 18:30N 49°18' W 123°05'0 0.0
2019-Sep-06 18:00N 49°18' W 123°05'0 0.1
2019-Sep-06 17:30N 49°18' W 123°05'0 0.0
2019-Sep-06 17:00N 49°18' W 123°05'0 0.1
2019-Sep-06 16:30N 49°18' W 123°05'0 0.2
2019-Sep-06 16:00N 49°18' W 123°05'0 0.2
2019-Sep-06 15:30N 49°18' W 123°05'0 0.1
2019-Sep-06 15:00N 49°18' W 123°05'0 0.3
2019-Sep-06 14:30N 49°18' W 123°05'0 0.1
2019-Sep-06 14:00N 49°18' W 123°05'0 0.0
2019-Sep-06 13:30N 49°18' W 123°05'0 0.1
2019-Sep-06 13:00N 49°18' W 123°05'0 0.0
2019-Sep-06 12:30N 49°18' W 123°05'0 0.0
2019-Sep-06 12:00N 49°18' W 123°05'0 0.1
2019-Sep-06 11:30N 49°18' W 123°05'0 0.1
2019-Sep-06 11:00N 49°18' W 123°05'0 0.0
2019-Sep-06 10:31N 49°18' W 123°05'0 0.0
2019-Sep-06 10:00N 49°18' W 123°05'0 0.0
2019-Sep-06 09:30N 49°18' W 123°05'0 0.0
2019-Sep-06 09:00N 49°18' W 123°05'0 0.0
2019-Sep-06 08:30N 49°18' W 123°05'0 0.2
2019-Sep-06 08:00N 49°18' W 123°05'0 0.2
2019-Sep-06 07:30N 49°18' W 123°05'0 0.1
2019-Sep-06 07:00N 49°18' W 123°05'0 0.1
2019-Sep-06 06:30N 49°18' W 123°05'0 0.1
2019-Sep-06 06:00N 49°18' W 123°05'0 0.1
2019-Sep-06 05:30N 49°18' W 123°05'0 0.3
2019-Sep-06 05:00N 49°18' W 123°05'1 2.3
2019-Sep-06 04:30N 49°18' W 123°07'4 7.1
2019-Sep-06 04:00N 49°19' W 123°12'4 7.6
2019-Sep-06 03:30N 49°18' W 123°17'612.6
2019-Sep-06 03:00N 49°12' W 123°19'612.7
2019-Sep-06 02:30N 49°05' W 123°21'612.4
2019-Sep-06 02:01N 49°01' W 123°15'713.2
2019-Sep-06 01:30N 48°56' W 123°08'612.8
2019-Sep-06 01:00N 48°51' W 123°02'510.2
2019-Sep-06 00:30N 48°46' W 123°02'511.0
2019-Sep-06 00:00N 48°43' W 123°10'5 9.2
2019-Sep-05 23:31N 48°40' W 123°15'510.8
2019-Sep-05 23:00N 48°35' W 123°13'510.5
2019-Sep-05 22:30N 48°30' W 123°11'510.3
2019-Sep-05 22:00N 48°25' W 123°11'510.4
2019-Sep-05 21:30N 48°22' W 123°18'4 8.3
2019-Sep-05 21:00N 48°21' W 123°24'2 3.9
2019-Sep-05 20:30N 48°19' W 123°25'510.2
2019-Sep-05 20:00N 48°15' W 123°28'510.4
2019-Sep-05 19:30N 48°13' W 123°36'611.5
2019-Sep-05 19:00N 48°13' W 123°44'611.3
2019-Sep-05 18:30N 48°13' W 123°53'611.5
2019-Sep-05 18:00N 48°15' W 124°01'612.4
2019-Sep-05 17:30N 48°18' W 124°10'612.3
2019-Sep-05 17:00N 48°20' W 124°18'612.2
2019-Sep-05 16:30N 48°23' W 124°26'612.1
2019-Sep-05 16:00N 48°26' W 124°34'611.6
2019-Sep-05 15:30N 48°28' W 124°42'611.2
2019-Sep-05 15:00N 48°29' W 124°51'612.0
2019-Sep-05 14:30N 48°29' W 124°60'612.1
2019-Sep-05 14:00N 48°28' W 125°09'611.5
2019-Sep-05 13:30N 48°28' W 125°18'611.6
2019-Sep-05 13:00N 48°27' W 125°26'611.9
2019-Sep-05 12:30N 48°27' W 125°35'611.8
2019-Sep-05 12:00N 48°28' W 125°44'611.3
2019-Sep-05 11:30N 48°28' W 125°53'611.3
2019-Sep-05 11:00N 48°28' W 126°01'611.8
2019-Sep-05 10:30N 48°28' W 126°10'612.2
2019-Sep-05 10:00N 48°28' W 126°19'612.2
2019-Sep-05 09:30N 48°28' W 126°28'612.3
2019-Sep-05 08:59N 48°28' W 126°38'  

Dump ship's entire track history